Time;durP1;ratioP1;P1;durP2;ratioP2;P2;SDS_P1;SDS_P2;PMS_P1;PMS_P2;Temp;Humidity;BMP_temperature;BMP_pressure;BME280_temperature;BME280_humidity;BME280_pressure;Samples;Min_cycle;Max_cycle;Signal;HPM_P1;HPM_P2
2022/04/22 00:02:00;;;;;;;14.73;7.53;;;;;;;10.42;64.69;100827.47;5091011;28;20024;-70
2022/04/22 00:04:25;;;;;;;12.98;7.82;;;;;;;10.35;65.16;100831.13;5083519;28;20098;-70
2022/04/22 00:06:50;;;;;;;11.50;7.93;;;;;;;10.33;65.65;100822.47;5081877;28;20489;-70
2022/04/22 00:09:16;;;;;;;11.80;7.45;;;;;;;10.28;65.64;100830.41;5081889;28;20024;-70
2022/04/22 00:11:41;;;;;;;12.02;7.97;;;;;;;10.21;65.72;100827.94;5085226;28;20070;-70
2022/04/22 00:14:06;;;;;;;12.13;7.53;;;;;;;10.24;65.86;100822.69;5078533;28;20033;-70
2022/04/22 00:16:32;;;;;;;13.13;8.40;;;;;;;10.20;66.06;100818.41;5087366;28;20035;-70
2022/04/22 00:18:58;;;;;;;10.75;7.75;;;;;;;10.21;66.37;100827.94;5079039;28;20399;-70
2022/04/22 00:21:24;;;;;;;11.50;7.78;;;;;;;10.16;66.71;100825.44;5073108;28;20055;-70
2022/04/22 00:23:50;;;;;;;10.63;7.93;;;;;;;10.14;66.36;100824.63;5081823;28;20052;-70
2022/04/22 00:26:17;;;;;;;15.38;8.70;;;;;;;10.06;67.24;100822.16;5084738;28;20025;-70
2022/04/22 00:28:42;;;;;;;13.88;8.48;;;;;;;10.07;67.09;100821.28;5081429;28;20029;-70
2022/04/22 00:31:07;;;;;;;12.52;8.63;;;;;;;10.11;67.17;100818.63;5084160;28;20038;-70
2022/04/22 00:33:33;;;;;;;9.02;7.70;;;;;;;10.06;67.19;100816.94;5086048;28;20422;-70
2022/04/22 00:35:58;;;;;;;12.98;8.15;;;;;;;9.99;67.82;100806.72;5077034;28;20107;-70
2022/04/22 00:38:24;;;;;;;10.57;8.48;;;;;;;9.97;68.07;100813.69;5089441;28;20087;-70
2022/04/22 00:40:49;;;;;;;12.75;8.95;;;;;;;9.93;67.74;100818.13;5088307;28;20036;-70
2022/04/22 00:43:15;;;;;;;11.93;9.00;;;;;;;9.92;68.36;100806.00;5076771;28;20479;-70
2022/04/22 00:45:41;;;;;;;14.90;9.05;;;;;;;9.89;68.33;100811.25;5074293;28;20024;-70
2022/04/22 00:48:07;;;;;;;15.02;8.90;;;;;;;9.80;68.61;100806.25;5072697;28;20093;-70
2022/04/22 00:50:32;;;;;;;13.63;9.40;;;;;;;9.90;68.58;100810.34;5075852;28;20048;-70
2022/04/22 00:52:58;;;;;;;12.73;8.63;;;;;;;9.80;68.99;100801.03;5083732;28;20483;-70
2022/04/22 00:55:24;;;;;;;13.50;9.30;;;;;;;9.76;69.21;100802.00;5082190;28;20035;-70
2022/04/22 00:57:50;;;;;;;13.77;9.55;;;;;;;9.72;70.10;100797.75;5077121;28;20024;-70
2022/04/22 01:00:15;;;;;;;12.27;9.18;;;;;;;9.69;69.68;100796.06;5086146;28;20024;-70
2022/04/22 01:02:41;;;;;;;13.65;9.18;;;;;;;9.63;70.04;100803.13;5083220;28;20047;-70
2022/04/22 01:10:37;;;;;;;13.45;9.38;;;;;;;9.49;70.97;100787.81;5078849;28;20043;-70
2022/04/22 01:13:02;;;;;;;13.88;9.75;;;;;;;9.54;70.87;100794.59;5076934;28;20029;-70
2022/04/22 01:15:28;;;;;;;15.10;9.98;;;;;;;9.47;70.86;100793.03;5085851;28;20534;-70
2022/04/22 01:17:53;;;;;;;14.63;9.68;;;;;;;9.44;71.46;100793.06;5072913;28;20482;-70
2022/04/22 01:20:19;;;;;;;16.23;9.32;;;;;;;9.44;71.12;100787.03;5088080;28;20081;-70
2022/04/22 01:22:44;;;;;;;15.38;9.70;;;;;;;9.34;71.81;100774.19;5085280;28;20487;-70
2022/04/22 01:25:09;;;;;;;14.82;9.57;;;;;;;9.37;72.18;100783.69;5087351;28;20055;-70
2022/04/22 01:27:37;;;;;;;15.02;9.60;;;;;;;9.42;72.21;100776.66;5076221;28;20020;-70
2022/04/22 01:30:06;;;;;;;13.70;9.75;;;;;;;9.48;71.84;100783.47;5081921;28;20040;-70
2022/04/22 01:32:31;;;;;;;11.88;9.43;;;;;;;9.54;71.92;100775.53;5079122;28;20446;-70
2022/04/22 01:34:57;;;;;;;12.90;9.15;;;;;;;9.60;71.66;100773.66;5083625;28;20028;-70
2022/04/22 01:37:23;;;;;;;15.90;9.07;;;;;;;9.54;71.32;100773.78;5079531;28;20031;-69
2022/04/22 01:39:48;;;;;;;14.35;9.85;;;;;;;9.52;72.01;100772.97;5078376;28;20047;-70
2022/04/22 01:42:14;;;;;;;11.38;9.10;;;;;;;9.55;72.04;100777.28;5088865;28;20016;-70
2022/04/22 01:44:39;;;;;;;14.00;9.82;;;;;;;9.46;72.58;100759.22;5084905;28;20024;-69
2022/04/22 01:47:05;;;;;;;14.80;9.35;;;;;;;9.62;72.02;100765.84;5075696;28;20024;-70
2022/04/22 01:49:30;;;;;;;15.00;10.10;;;;;;;9.58;72.18;100769.38;5082691;28;20082;-70
2022/04/22 01:51:56;;;;;;;16.35;10.00;;;;;;;9.53;72.23;100776.44;5072503;28;20048;-70
2022/04/22 01:54:21;;;;;;;15.13;9.45;;;;;;;9.42;72.73;100767.97;5081738;28;20034;-70
2022/04/22 01:56:47;;;;;;;15.02;10.60;;;;;;;9.39;73.03;100774.13;5071628;28;20086;-70
2022/04/22 01:59:12;;;;;;;15.52;10.07;;;;;;;9.48;72.70;100771.34;5081887;28;20035;-69
2022/04/22 02:01:37;;;;;;;14.27;10.60;;;;;;;9.37;73.14;100773.28;5085834;28;20106;-70
2022/04/22 02:04:03;;;;;;;14.05;9.85;;;;;;;9.29;73.69;100770.84;5085381;28;20391;-70
2022/04/22 02:06:28;;;;;;;16.35;10.60;;;;;;;9.24;73.76;100771.78;5081440;28;20052;-69
2022/04/22 02:08:54;;;;;;;15.93;10.98;;;;;;;9.23;73.91;100778.75;5076666;28;20028;-69
2022/04/22 02:11:19;;;;;;;15.50;11.02;;;;;;;9.19;73.75;100776.22;5077917;28;20033;-69
2022/04/22 02:13:45;;;;;;;14.63;10.10;;;;;;;9.15;74.34;100772.81;5070865;28;20089;-69
2022/04/22 02:16:10;;;;;;;15.13;10.68;;;;;;;9.16;74.42;100771.09;5071473;28;20068;-69
2022/04/22 02:18:41;;;;;;;17.50;10.88;;;;;;;9.18;74.31;100769.31;5074508;28;20459;-70
2022/04/22 02:21:08;;;;;;;15.73;11.10;;;;;;;9.08;74.60;100771.22;5084625;28;20031;-70
2022/04/22 02:23:34;;;;;;;16.85;11.52;;;;;;;9.01;75.34;100765.28;5081591;28;20498;-69
2022/04/22 02:26:00;;;;;;;15.20;11.23;;;;;;;8.99;75.55;100766.19;5083553;28;20380;-69
2022/04/22 02:28:32;;;;;;;14.70;11.90;;;;;;;8.95;75.34;100772.31;5080976;28;20025;-69
2022/04/22 02:31:11;;;;;;;16.52;12.05;;;;;;;8.92;76.36;100770.63;5081489;28;20480;-69
2022/04/22 02:33:38;;;;;;;14.80;10.75;;;;;;;8.88;76.18;100761.19;5077309;28;20016;-70
2022/04/22 02:36:06;;;;;;;17.40;11.63;;;;;;;8.93;76.09;100766.28;5088280;28;20031;-69
2022/04/22 02:38:32;;;;;;;16.30;11.30;;;;;;;9.02;75.92;100763.53;5086131;28;20028;-69
2022/04/22 02:46:27;;;;;;;14.90;11.05;;;;;;;9.17;76.00;100763.25;5087934;28;20035;-69
2022/04/22 02:48:56;;;;;;;16.75;11.43;;;;;;;9.12;75.97;100755.56;5074804;28;20032;-69
2022/04/22 02:51:21;;;;;;;17.58;10.82;;;;;;;9.07;76.03;100751.31;5083242;28;20871;-70
2022/04/22 02:53:46;;;;;;;19.25;11.63;;;;;;;8.98;76.92;100757.53;5089867;28;20040;-70
2022/04/22 02:56:12;;;;;;;17.17;10.45;;;;;;;8.90;76.83;100744.69;5088403;28;20387;-70
2022/04/22 02:58:39;;;;;;;15.70;10.88;;;;;;;8.85;76.73;100749.09;5085890;28;20472;-69
2022/04/22 03:01:04;;;;;;;15.80;12.00;;;;;;;8.77;77.45;100747.53;5084710;28;20070;-69
2022/04/22 03:03:30;;;;;;;15.15;11.30;;;;;;;8.76;77.72;100751.84;5078486;28;20412;-70
2022/04/22 03:05:55;;;;;;;17.10;11.85;;;;;;;8.74;77.80;100750.19;5081244;28;20508;-69
2022/04/22 03:08:20;;;;;;;17.45;10.70;;;;;;;8.73;77.62;100751.94;5078856;28;20378;-69
2022/04/22 03:10:48;;;;;;;17.83;11.98;;;;;;;8.70;77.93;100751.09;5071209;28;20052;-70
2022/04/22 03:13:14;;;;;;;17.40;11.45;;;;;;;8.65;78.47;100746.00;5078118;28;20467;-69
2022/04/22 03:15:41;;;;;;;18.33;11.85;;;;;;;8.62;78.11;100744.28;5079615;28;20039;-69
2022/04/22 03:18:06;;;;;;;15.63;12.05;;;;;;;8.59;78.47;100743.50;5073369;28;20162;-70
2022/04/22 03:20:31;;;;;;;20.08;12.43;;;;;;;8.46;78.85;100744.56;5074963;28;20122;-70
2022/04/22 03:22:57;;;;;;;18.45;12.30;;;;;;;8.46;78.93;100741.97;5088450;28;20047;-69
2022/04/22 03:25:22;;;;;;;17.05;12.27;;;;;;;8.35;79.28;100719.59;5084256;28;20492;-70
2022/04/22 03:27:47;;;;;;;15.60;11.45;;;;;;;8.37;79.28;100742.94;5088175;28;20024;-70
2022/04/22 03:30:13;;;;;;;17.50;12.60;;;;;;;8.34;79.66;100743.03;5075622;28;20035;-69
2022/04/22 03:32:38;;;;;;;19.27;12.88;;;;;;;8.25;80.07;100735.38;5082177;28;20041;-69
2022/04/22 03:35:04;;;;;;;18.88;12.05;;;;;;;8.28;79.82;100743.13;5082440;28;20024;-69
2022/04/22 03:37:31;;;;;;;18.60;13.30;;;;;;;8.27;80.00;100741.38;5079193;28;20361;-70
2022/04/22 03:39:56;;;;;;;17.40;12.90;;;;;;;8.25;80.65;100744.00;5092195;28;20020;-69
2022/04/22 03:42:22;;;;;;;20.65;13.48;;;;;;;8.24;80.82;100741.41;5078922;28;20092;-69
2022/04/22 03:44:47;;;;;;;20.58;12.10;;;;;;;8.19;80.71;100746.69;5087806;28;20021;-69
2022/04/22 03:47:13;;;;;;;17.73;12.07;;;;;;;8.20;81.31;100740.59;5091117;28;20046;-70
2022/04/22 03:49:38;;;;;;;18.30;12.35;;;;;;;8.16;80.91;100745.00;5090308;28;20033;-69
2022/04/22 03:52:04;;;;;;;18.40;13.07;;;;;;;8.10;81.43;100737.28;5087368;28;20040;-69
2022/04/22 03:54:29;;;;;;;20.25;13.27;;;;;;;8.10;81.75;100741.63;5085921;28;20224;-69
2022/04/22 03:59:38;;;;;;;20.15;13.30;;;;;;;8.05;81.88;100720.09;5087543;28;20166;-69
2022/04/22 04:02:04;;;;;;;20.20;13.35;;;;;;;8.01;81.76;100723.59;5075650;28;20131;-70
2022/04/22 04:04:29;;;;;;;20.70;14.30;;;;;;;8.00;82.18;100716.69;5092242;28;20031;-69
2022/04/22 04:06:54;;;;;;;20.13;14.00;;;;;;;7.98;82.13;100716.72;5077708;28;20017;-69
2022/04/22 04:17:36;;;;;;;19.70;13.65;;;;;;;8.02;82.22;100720.13;5080688;28;20403;-69
2022/04/22 04:25:30;;;;;;;21.58;15.45;;;;;;;7.89;83.31;100720.31;5092966;28;20036;-69
2022/04/22 04:27:56;;;;;;;27.85;15.07;;;;;;;7.88;83.49;100712.53;5080794;28;20028;-69
2022/04/22 04:30:22;;;;;;;23.13;15.35;;;;;;;7.93;83.15;100719.38;5085845;28;20059;-69
2022/04/22 04:32:47;;;;;;;23.02;15.32;;;;;;;7.85;83.85;100710.84;5086369;28;20064;-69
2022/04/22 04:35:12;;;;;;;21.73;15.02;;;;;;;7.89;83.91;100716.84;5086565;28;20029;-69
2022/04/22 04:37:42;;;;;;;21.45;15.57;;;;;;;7.84;83.65;100710.84;5078048;28;20390;-69
2022/04/22 04:40:09;;;;;;;24.05;15.18;;;;;;;7.83;84.14;100719.53;5083824;28;20043;-69
2022/04/22 04:42:34;;;;;;;26.90;16.42;;;;;;;7.86;84.22;100725.53;5082177;28;20036;-69
2022/04/22 04:45:00;;;;;;;23.83;16.17;;;;;;;7.92;84.77;100720.25;5093636;28;20034;-69
2022/04/22 04:47:25;;;;;;;23.45;14.50;;;;;;;8.05;83.90;100726.13;5088769;28;20020;-69
2022/04/22 04:49:53;;;;;;;24.40;14.60;;;;;;;8.08;83.78;100722.66;5079909;28;20034;-69
2022/04/22 04:52:18;;;;;;;23.30;15.75;;;;;;;8.15;83.71;100727.72;5079259;28;20910;-69
2022/04/22 04:54:43;;;;;;;21.00;14.48;;;;;;;8.23;83.44;100719.78;5084415;28;20036;-69
2022/04/22 04:57:09;;;;;;;23.88;15.02;;;;;;;8.23;83.43;100719.78;5082215;28;20097;-69
2022/04/22 04:59:34;;;;;;;27.02;15.20;;;;;;;8.29;82.87;100713.66;5075873;28;20033;-69
2022/04/22 05:01:59;;;;;;;28.00;16.25;;;;;;;8.23;82.83;100705.94;5082560;28;20033;-69
2022/04/22 05:04:25;;;;;;;23.70;15.57;;;;;;;8.20;83.45;100717.25;5076871;28;20455;-69
2022/04/22 05:06:50;;;;;;;23.70;15.63;;;;;;;8.13;83.58;100723.41;5077191;28;20031;-69
2022/04/22 05:09:15;;;;;;;27.20;16.08;;;;;;;8.11;84.16;100720.84;5076259;28;20035;-69
2022/04/22 05:11:41;;;;;;;28.75;16.30;;;;;;;8.09;83.84;100712.22;5072112;28;20036;-69
2022/04/22 05:14:07;;;;;;;30.52;17.42;;;;;;;8.12;84.26;100714.78;5073528;28;20413;-69
2022/04/22 05:16:33;;;;;;;27.63;16.98;;;;;;;8.10;84.25;100713.94;5075915;28;20118;-70
2022/04/22 05:18:58;;;;;;;25.23;16.45;;;;;;;8.11;84.02;100722.56;5073009;28;20036;-69
2022/04/22 05:21:23;;;;;;;27.02;16.92;;;;;;;8.19;84.22;100718.97;5077832;28;20031;-69
2022/04/22 05:23:49;;;;;;;26.75;15.77;;;;;;;8.19;84.39;100723.31;5072775;28;20040;-69
2022/04/22 05:26:14;;;;;;;25.50;16.90;;;;;;;8.24;84.26;100720.63;5075712;28;20033;-69
2022/04/22 05:28:39;;;;;;;25.52;17.10;;;;;;;8.23;84.60;100717.19;5075244;28;20391;-69
2022/04/22 05:33:48;;;;;;;;;;;;;;;8.38;81.76;100726.53;5084661;28;20038;-70
2022/04/22 05:36:14;;;;;;;30.25;16.98;;;;;;;8.34;84.35;100723.09;5078433;28;19916;-70
2022/04/22 05:38:39;;;;;;;25.15;16.52;;;;;;;8.42;84.33;100723.00;5085382;28;20081;-69
2022/04/22 05:41:04;;;;;;;24.83;17.60;;;;;;;8.43;84.45;100716.91;5087673;28;20020;-70
2022/04/22 05:43:29;;;;;;;29.38;18.17;;;;;;;8.48;84.28;100720.28;5086513;28;20036;-69
2022/04/22 05:45:55;;;;;;;28.85;17.52;;;;;;;8.57;84.38;100727.94;5079615;28;20502;-69
2022/04/22 05:48:20;;;;;;;30.10;18.73;;;;;;;8.60;84.03;100720.09;5086998;28;20089;-70
2022/04/22 05:50:45;;;;;;;28.23;18.35;;;;;;;8.64;84.71;100720.91;5071904;28;20042;-70
2022/04/22 05:53:11;;;;;;;27.52;17.50;;;;;;;8.71;84.02;100721.63;5077308;28;20036;-70
2022/04/22 05:55:36;;;;;;;29.58;18.45;;;;;;;8.75;84.30;100721.53;5088766;28;20039;-70
2022/04/22 05:58:02;;;;;;;37.42;18.90;;;;;;;8.82;84.17;100732.69;5092329;28;20051;-71
2022/04/22 06:00:32;;;;;;;30.85;18.15;;;;;;;8.80;85.04;100730.13;5082003;28;20472;-70
2022/04/22 06:02:58;;;;;;;30.40;19.30;;;;;;;8.85;84.10;100725.69;5072072;28;20035;-70
2022/04/22 06:05:25;;;;;;;34.28;19.38;;;;;;;8.91;84.37;100730.78;5082742;28;20448;-70
2022/04/22 06:10:31;;;;;;;32.05;20.10;;;;;;;8.98;84.25;100723.72;5086590;28;20158;-70
2022/04/22 06:10:37;;;;;;;26.15;18.13;;;;;;;9.03;84.42;100719.31;5077388;28;20482;-70
2022/04/22 06:13:03;;;;;;;32.60;19.65;;;;;;;9.13;84.36;100720.00;5092810;28;20032;-70
2022/04/22 06:15:29;;;;;;;32.92;19.08;;;;;;;9.20;84.25;100723.34;5091808;28;20024;-70
2022/04/22 06:17:55;;;;;;;29.48;20.08;;;;;;;9.27;83.85;100722.31;5083425;28;20486;-70
2022/04/22 06:20:21;;;;;;;29.17;19.48;;;;;;;9.28;83.80;100729.22;5073465;28;20032;-70
2022/04/22 06:22:46;;;;;;;33.20;19.02;;;;;;;9.29;84.01;100710.16;5075651;28;20032;-70
2022/04/22 06:25:12;;;;;;;32.75;20.20;;;;;;;9.42;83.86;100718.53;5078206;28;20029;-71
2022/04/22 06:27:42;;;;;;;29.25;19.77;;;;;;;9.45;83.56;100721.94;5080114;28;20035;-72
2022/04/22 06:30:09;;;;;;;30.77;20.40;;;;;;;9.52;83.14;100723.53;5083486;28;20035;-73
2022/04/22 06:32:36;;;;;;;27.02;20.10;;;;;;;9.64;82.73;100706.78;5084530;28;20507;-74
2022/04/22 06:35:03;;;;;;;32.67;20.52;;;;;;;9.61;83.11;100719.84;5073954;28;20048;-73
2022/04/22 06:37:34;;;;;;;30.58;20.50;;;;;;;9.67;82.83;100724.94;5070993;28;20069;-71
2022/04/22 06:48:12;;;;;;;30.30;19.85;;;;;;;9.97;81.73;100719.94;5091622;28;19980;-72
2022/04/22 06:50:38;;;;;;;33.40;20.27;;;;;;;10.03;81.66;100720.66;5091461;28;20051;-72
2022/04/22 06:53:03;;;;;;;28.98;20.13;;;;;;;10.09;82.46;100717.91;5091929;28;20066;-72
2022/04/22 06:55:29;;;;;;;28.65;20.50;;;;;;;10.18;82.18;100710.78;5091921;28;20551;-72
2022/04/22 06:57:56;;;;;;;27.67;19.83;;;;;;;10.28;81.23;100709.69;5090093;28;20039;-72
2022/04/22 07:00:22;;;;;;;31.50;19.73;;;;;;;10.32;80.64;100706.97;5091489;28;20103;-72
2022/04/22 07:02:47;;;;;;;27.73;18.85;;;;;;;10.32;80.52;100721.75;5091910;28;20107;-72
2022/04/22 07:05:13;;;;;;;28.98;20.33;;;;;;;10.38;80.80;100719.00;5091614;28;20051;-72
2022/04/22 07:07:39;;;;;;;27.98;19.27;;;;;;;10.42;80.33;100712.81;5091299;28;20024;-72
2022/04/22 07:10:05;;;;;;;27.08;18.33;;;;;;;10.59;79.53;100709.78;5091614;28;20094;-72
2022/04/22 07:12:32;;;;;;;26.13;19.70;;;;;;;10.64;79.90;100713.13;5091585;28;20443;-72
2022/04/22 07:15:05;;;;;;;26.55;19.77;;;;;;;10.79;79.59;100709.28;5091407;28;20391;-72
2022/04/22 07:17:34;;;;;;;30.88;20.48;;;;;;;10.87;78.36;100709.06;5092120;28;20032;-72
2022/04/22 07:20:09;;;;;;;27.90;18.73;;;;;;;10.86;77.98;100713.44;5091698;28;20028;-72
2022/04/22 07:22:35;;;;;;;30.70;20.23;;;;;;;10.84;77.70;100698.72;5091488;28;20035;-72
2022/04/22 07:25:01;;;;;;;29.50;20.25;;;;;;;10.87;78.72;100703.84;5092097;28;20082;-72
2022/04/22 07:27:28;;;;;;;34.85;19.92;;;;;;;10.91;77.65;100701.09;5091939;28;20368;-72
2022/04/22 07:29:55;;;;;;;28.85;19.52;;;;;;;10.94;78.67;100703.63;5091137;28;20073;-72
2022/04/22 07:32:20;;;;;;;28.10;19.00;;;;;;;11.18;77.64;100696.03;5091500;28;20498;-72
2022/04/22 07:34:46;;;;;;;27.08;18.90;;;;;;;11.43;75.99;100683.97;5091239;28;20036;-72
2022/04/22 07:37:12;;;;;;;26.33;18.73;;;;;;;11.59;75.91;100679.16;5091266;28;20036;-72
2022/04/22 07:39:39;;;;;;;30.42;19.55;;;;;;;11.68;75.92;100689.34;5091363;28;20408;-72
2022/04/22 07:42:07;;;;;;;26.65;19.58;;;;;;;11.94;74.48;100696.41;5091592;28;20081;-72
2022/04/22 07:47:19;;;;;;;25.17;19.23;;;;;;;12.29;72.72;100688.31;5091572;28;20051;-72
2022/04/22 07:49:45;;;;;;;24.00;18.63;;;;;;;12.40;70.89;100692.28;5091092;28;20028;-72
2022/04/22 07:52:11;;;;;;;25.55;17.42;;;;;;;12.50;71.18;100686.75;5091131;28;20483;-72
2022/04/22 07:54:36;;;;;;;24.83;17.45;;;;;;;12.66;70.99;100690.56;5091186;28;20024;-72
2022/04/22 07:57:02;;;;;;;23.30;17.55;;;;;;;12.69;70.34;100687.84;5090877;28;20434;-72
2022/04/22 07:59:28;;;;;;;23.95;17.48;;;;;;;12.68;70.87;100678.28;5091689;28;20032;-72
2022/04/22 08:01:54;;;;;;;23.35;17.05;;;;;;;12.60;69.88;100686.38;5091072;28;20027;-72
2022/04/22 08:04:19;;;;;;;24.15;17.58;;;;;;;12.66;70.38;100690.56;5090955;28;20047;-73
2022/04/22 08:06:44;;;;;;;26.17;16.42;;;;;;;12.76;70.22;100691.09;5091593;28;20028;-72
2022/04/22 08:09:09;;;;;;;22.70;17.38;;;;;;;12.87;67.83;100679.34;5091294;28;20024;-72
2022/04/22 08:11:35;;;;;;;23.08;16.40;;;;;;;12.94;69.15;100676.50;5093491;28;20383;-72
2022/04/22 08:14:00;;;;;;;21.77;17.08;;;;;;;13.01;67.86;100677.97;5095230;28;20384;-72
2022/04/22 08:16:26;;;;;;;21.63;16.42;;;;;;;13.01;68.51;100677.97;5094566;28;20039;-72
2022/04/22 08:18:51;;;;;;;22.48;16.80;;;;;;;13.11;67.58;100674.13;5094506;28;20042;-72
2022/04/22 08:21:17;;;;;;;18.55;14.15;;;;;;;13.16;66.68;100674.81;5094978;28;20032;-72
2022/04/22 08:23:43;;;;;;;23.08;17.05;;;;;;;13.12;67.88;100676.69;5094659;28;20058;-72
2022/04/22 08:26:09;;;;;;;22.15;17.60;;;;;;;13.21;68.51;100669.41;5094245;28;20553;-72
2022/04/22 08:28:34;;;;;;;21.83;16.48;;;;;;;13.26;67.23;100680.59;5094502;28;20020;-72
2022/04/22 08:31:00;;;;;;;22.10;16.30;;;;;;;13.24;67.32;100657.13;5094769;28;20035;-72
2022/04/22 08:33:26;;;;;;;23.60;17.00;;;;;;;13.30;67.95;100674.34;5094230;28;20380;-72
2022/04/22 08:35:51;;;;;;;25.38;16.63;;;;;;;13.30;67.16;100667.31;5094530;28;20102;-72
2022/04/22 08:38:17;;;;;;;22.92;16.92;;;;;;;13.34;67.33;100653.22;5094452;28;20108;-72
2022/04/22 08:40:43;;;;;;;21.88;16.35;;;;;;;13.49;66.58;100656.16;5094024;28;20036;-72
2022/04/22 08:43:11;;;;;;;21.02;16.77;;;;;;;13.69;66.38;100635.28;5094112;28;20027;-72
2022/04/22 08:45:37;;;;;;;24.50;16.77;;;;;;;13.92;64.66;100628.28;5094343;28;20055;-72
2022/04/22 08:50:51;;;;;;;22.60;16.63;;;;;;;14.16;63.40;100643.00;5093998;28;20055;-72
2022/04/22 08:53:21;;;;;;;26.85;16.77;;;;;;;14.17;63.71;100646.47;5093835;28;20020;-72
2022/04/22 08:55:49;;;;;;;18.63;15.10;;;;;;;14.23;64.22;100657.56;5093982;28;20038;-72
2022/04/22 08:58:17;;;;;;;21.48;15.27;;;;;;;14.33;64.77;100659.81;5094097;28;20111;-72
2022/04/22 09:00:43;;;;;;;22.52;15.98;;;;;;;14.55;63.90;100652.78;5093660;28;20035;-72
2022/04/22 09:03:09;;;;;;;21.23;15.43;;;;;;;14.56;63.32;100657.09;5094072;28;20020;-72
2022/04/22 09:05:35;;;;;;;19.52;15.10;;;;;;;14.49;63.59;100658.25;5093851;28;20047;-72
2022/04/22 09:08:01;;;;;;;19.85;15.27;;;;;;;14.80;63.91;100649.06;5093640;28;20020;-72
2022/04/22 09:10:27;;;;;;;19.95;14.05;;;;;;;14.95;61.15;100651.88;5094006;28;20032;-72
2022/04/22 09:12:54;;;;;;;20.25;14.98;;;;;;;14.85;61.78;100644.47;5093767;28;20050;-73
2022/04/22 09:15:25;;;;;;;18.80;14.25;;;;;;;14.83;61.19;100644.53;5093411;28;20038;-72
2022/04/22 09:17:57;;;;;;;18.17;14.02;;;;;;;14.87;59.07;100642.63;5093343;28;20391;-72
2022/04/22 09:20:28;;;;;;;21.90;14.18;;;;;;;15.07;61.14;100645.19;5093757;28;20024;-72
2022/04/22 09:22:55;;;;;;;18.10;13.95;;;;;;;15.41;59.09;100628.75;5092623;28;20035;-72
2022/04/22 09:25:25;;;;;;;16.00;13.00;;;;;;;15.64;58.01;100627.66;5093356;28;20111;-72
2022/04/22 09:27:51;;;;;;;17.73;13.50;;;;;;;15.93;57.30;100621.97;5093641;28;20066;-72
2022/04/22 09:30:17;;;;;;;16.50;12.75;;;;;;;16.10;56.92;100622.81;5093076;28;20059;-72
2022/04/22 09:32:44;;;;;;;14.80;11.38;;;;;;;15.94;55.59;100619.25;5093095;28;20100;-73
2022/04/22 09:35:17;;;;;;;22.73;12.90;;;;;;;15.68;57.49;100626.63;5092916;28;20024;-73
2022/04/22 09:43:37;;;;;;;17.08;12.85;;;;;;;15.35;58.12;100607.19;5092778;28;20039;-73
2022/04/22 09:46:03;;;;;;;19.27;12.57;;;;;;;15.20;56.58;100609.59;5093153;28;20028;-72
2022/04/22 09:48:44;;;;;;;21.73;12.50;;;;;;;14.98;58.11;100608.88;5093617;28;20048;-72
2022/04/22 09:51:26;;;;;;;14.95;12.02;;;;;;;14.86;57.99;100601.56;5092467;28;20046;-72
2022/04/22 09:54:17;;;;;;;17.15;12.52;;;;;;;15.02;58.06;100586.81;5092786;28;20502;-72
2022/04/22 09:56:56;;;;;;;14.82;11.45;;;;;;;15.21;56.56;100595.53;5092681;28;20169;-72
2022/04/22 09:59:24;;;;;;;17.17;12.20;;;;;;;15.14;57.09;100588.00;5093020;28;20115;-72
2022/04/22 10:01:49;;;;;;;17.10;13.13;;;;;;;14.98;57.95;100596.59;5092819;28;20028;-72
2022/04/22 10:04:17;;;;;;;14.73;12.52;;;;;;;15.03;58.05;100591.13;5092360;28;20024;-72
2022/04/22 10:06:43;;;;;;;16.77;12.50;;;;;;;15.16;57.93;100591.41;5092633;28;20420;-72
2022/04/22 10:09:11;;;;;;;15.05;11.88;;;;;;;14.99;55.13;100589.56;5092696;28;20035;-72
2022/04/22 10:11:38;;;;;;;15.20;11.40;;;;;;;14.68;58.19;100587.47;5092233;28;20032;-72
2022/04/22 10:14:09;;;;;;;13.75;11.57;;;;;;;14.45;57.78;100591.06;5092450;28;20066;-72
2022/04/22 10:16:35;;;;;;;16.13;12.55;;;;;;;14.26;58.53;100591.03;5092786;28;20032;-72
2022/04/22 10:19:01;;;;;;;16.05;12.50;;;;;;;14.12;58.48;100588.13;5092294;28;20028;-72
2022/04/22 10:21:27;;;;;;;13.75;11.60;;;;;;;13.95;59.20;100594.94;5092376;28;20035;-72
2022/04/22 10:23:56;;;;;;;17.38;13.75;;;;;;;14.11;59.04;100589.06;5092717;28;20032;-72
2022/04/22 10:26:22;;;;;;;17.30;12.88;;;;;;;14.38;57.77;100580.00;5092013;28;20028;-72
2022/04/22 10:28:48;;;;;;;14.48;12.05;;;;;;;14.64;58.51;100576.25;5092265;28;20028;-72
2022/04/22 10:31:14;;;;;;;15.57;11.93;;;;;;;15.06;58.37;100574.41;5092181;28;20063;-72
2022/04/22 10:33:42;;;;;;;16.17;12.70;;;;;;;15.51;55.15;100566.13;5091414;28;20067;-72
2022/04/22 10:36:11;;;;;;;17.38;11.93;;;;;;;16.02;55.10;100564.53;5092318;28;20043;-73
2022/04/22 10:38:39;;;;;;;15.90;12.40;;;;;;;16.39;53.44;100558.22;5091879;28;20067;-73
2022/04/22 10:41:16;;;;;;;17.75;11.90;;;;;;;16.44;53.36;100557.97;5092301;28;20039;-72
2022/04/22 10:43:42;;;;;;;14.27;12.13;;;;;;;16.09;52.97;100552.75;5091970;28;20039;-73
2022/04/22 10:49:15;;;;;;;17.77;12.85;;;;;;;15.27;54.97;100572.53;5092704;28;20035;-72
2022/04/22 10:51:56;;;;;;;14.77;11.77;;;;;;;15.12;55.66;100567.09;5073755;28;20629;-73
2022/04/22 10:54:51;;;;;;;17.90;14.00;;;;;;;15.39;54.83;100556.19;5091581;28;20101;-73
2022/04/22 10:57:17;;;;;;;;;;;;;;;15.66;53.94;100544.41;5092097;28;20073;-72
2022/04/22 10:59:43;;;;;;;17.80;13.32;;;;;;;15.70;52.29;100558.22;5091554;28;19916;-73
2022/04/22 11:02:30;;;;;;;15.45;11.95;;;;;;;15.75;53.03;100544.84;5092056;28;20024;-73
2022/04/22 11:05:33;;;;;;;16.15;11.98;;;;;;;15.92;52.37;100552.72;5091972;28;20022;-72
2022/04/22 11:07:58;;;;;;;19.08;12.27;;;;;;;16.04;52.42;100548.66;5091862;28;20066;-73
2022/04/22 11:10:26;;;;;;;17.23;12.02;;;;;;;16.12;51.99;100547.34;5091831;28;20059;-72
2022/04/22 11:12:55;;;;;;;19.63;12.90;;;;;;;16.02;50.55;100546.13;5091931;28;20097;-73
2022/04/22 11:15:42;;;;;;;15.80;12.20;;;;;;;15.83;51.06;100543.56;5091207;28;20439;-72
2022/04/22 11:18:08;;;;;;;13.95;12.45;;;;;;;15.61;53.16;100533.22;5091552;28;20495;-73
2022/04/22 11:20:38;;;;;;;13.70;11.80;;;;;;;15.48;53.04;100529.50;5091436;28;20103;-73
2022/04/22 11:23:06;;;;;;;18.92;13.45;;;;;;;15.37;54.28;100539.69;5091790;28;20024;-72
2022/04/22 11:25:33;;;;;;;16.00;13.57;;;;;;;15.35;53.22;100541.50;5091551;28;20027;-73
2022/04/22 11:27:59;;;;;;;16.33;13.85;;;;;;;15.04;53.83;100521.97;5091397;28;20053;-72
2022/04/22 11:30:25;;;;;;;17.85;14.02;;;;;;;14.99;54.18;100532.66;5091864;28;20056;-72
2022/04/22 11:32:56;;;;;;;19.88;14.70;;;;;;;14.85;55.18;100542.13;5091302;28;20143;-73
2022/04/22 11:35:22;;;;;;;19.77;14.77;;;;;;;14.73;54.69;100543.53;5091312;28;20039;-73
2022/04/22 11:38:04;;;;;;;19.38;13.88;;;;;;;14.57;55.42;100537.25;5091715;28;20024;-73
2022/04/22 11:40:35;;;;;;;19.33;14.10;;;;;;;14.39;56.71;100538.91;5091731;28;20020;-72
2022/04/22 11:43:08;;;;;;;19.15;13.45;;;;;;;14.54;56.62;100527.75;5091639;28;20023;-73
2022/04/22 11:45:40;;;;;;;18.60;13.55;;;;;;;14.79;54.95;100534.53;5094587;28;20077;-73
2022/04/22 11:48:07;;;;;;;17.65;13.23;;;;;;;15.11;54.80;100527.78;5095542;28;20103;-73
2022/04/22 11:50:38;;;;;;;21.55;13.40;;;;;;;15.48;53.39;100526.88;5094695;28;20396;-73
2022/04/22 11:53:07;;;;;;;18.25;13.88;;;;;;;15.66;52.62;100536.50;5095032;28;20257;-72
2022/04/22 11:55:33;;;;;;;20.65;13.57;;;;;;;15.78;51.66;100521.03;5095553;28;20024;-72
2022/04/22 11:57:59;;;;;;;17.27;12.68;;;;;;;16.06;50.84;100521.34;5095148;28;20028;-72
2022/04/22 12:05:54;;;;;;;19.70;13.60;;;;;;;17.10;51.16;100509.66;5095152;28;20038;-73
2022/04/22 12:08:20;;;;;;;17.73;14.18;;;;;;;17.61;48.77;100512.91;5095058;28;20020;-73
2022/04/22 12:10:47;;;;;;;18.05;13.23;;;;;;;17.82;47.37;100507.34;5094441;28;20032;-72
2022/04/22 12:13:14;;;;;;;22.85;14.05;;;;;;;17.93;47.15;100503.16;5094752;28;20038;-73